National Weather Service Raw Text Product

Displaying AFOS PIL: TAFALO Received: 2017-08-13 11:32 UTC


400 
FTUS43 KDMX 131132
TAFALO
TAF
KALO 131132Z 1312/1412 12005KT P6SM SCT070 BKN120
     FM131700 15008KT P6SM BKN110=